createdAt,value
2023-04-18T00:01:21.986Z,5.75
2023-04-18T00:03:39.054Z,5.74
2023-04-18T00:05:56.193Z,5.70
2023-04-18T00:08:13.449Z,5.63
2023-04-18T00:10:30.427Z,5.60
2023-04-18T00:12:48.685Z,5.54
2023-04-18T00:15:05.634Z,5.48
2023-04-18T00:17:22.727Z,5.43
2023-04-18T00:19:39.985Z,5.39
2023-04-18T00:21:56.982Z,5.33
2023-04-18T00:24:14.067Z,5.27
2023-04-18T00:26:31.260Z,5.22
2023-04-18T00:28:49.261Z,5.19
2023-04-18T00:31:06.395Z,5.15
2023-04-18T00:33:25.236Z,5.12
2023-04-18T00:35:42.334Z,5.10
2023-04-18T00:38:00.503Z,5.06
2023-04-18T00:40:17.566Z,5.00
2023-04-18T00:42:34.779Z,4.94
2023-04-18T00:44:51.853Z,4.87
2023-04-18T00:47:09.868Z,4.81
2023-04-18T00:49:26.955Z,4.80
2023-04-18T00:51:44.219Z,4.77
2023-04-18T00:54:02.638Z,4.73
2023-04-18T00:56:19.610Z,4.70
2023-04-18T00:58:36.602Z,4.67
2023-04-18T01:00:53.881Z,4.64
2023-04-18T01:03:11.202Z,4.63
2023-04-18T01:05:28.652Z,4.60
2023-04-18T01:07:45.702Z,4.57
2023-04-18T01:10:03.995Z,4.51
2023-04-18T01:12:20.952Z,4.47
2023-04-18T01:14:38.875Z,4.44
2023-04-18T01:16:55.767Z,4.45
2023-04-18T01:19:12.731Z,4.45
2023-04-18T01:21:30.045Z,4.44
2023-04-18T01:23:48.071Z,4.39
2023-04-18T01:26:06.815Z,4.38
2023-04-18T01:28:23.853Z,4.36
2023-04-18T01:30:41.872Z,4.33
2023-04-18T01:32:58.942Z,4.28
2023-04-18T01:35:16.211Z,4.21
2023-04-18T01:37:33.267Z,4.15
2023-04-18T01:39:50.208Z,4.12
2023-04-18T01:42:07.096Z,4.13
2023-04-18T01:44:24.338Z,4.11
2023-04-18T01:46:42.389Z,4.13
2023-04-18T01:48:59.767Z,4.11
2023-04-18T01:51:18.101Z,4.13
2023-04-18T01:53:35.258Z,4.10
2023-04-18T01:55:52.417Z,4.08
2023-04-18T01:58:10.402Z,4.05
2023-04-18T02:00:27.679Z,4.04
2023-04-18T02:02:44.950Z,4.07
2023-04-18T02:05:02.042Z,4.13
2023-04-18T02:07:19.383Z,4.13
2023-04-18T02:09:36.405Z,4.11
2023-04-18T02:11:53.410Z,4.11
2023-04-18T02:14:10.450Z,4.09
2023-04-18T02:16:27.774Z,4.08
2023-04-18T02:18:44.796Z,4.06
2023-04-18T02:21:02.845Z,4.02
2023-04-18T02:23:21.088Z,3.98
2023-04-18T02:25:38.044Z,3.94
2023-04-18T02:27:55.083Z,3.91
2023-04-18T02:30:12.097Z,3.88
2023-04-18T02:32:29.084Z,3.90
2023-04-18T02:34:46.095Z,3.92
2023-04-18T02:37:04.091Z,3.92
2023-04-18T02:39:21.151Z,3.91
2023-04-18T02:41:38.401Z,3.89
2023-04-18T02:43:55.725Z,3.83
2023-04-18T02:46:13.739Z,3.79
2023-04-18T02:48:30.766Z,3.76
2023-04-18T02:50:48.113Z,3.75
2023-04-18T02:53:05.201Z,3.72
2023-04-18T02:55:22.120Z,3.70
2023-04-18T02:57:39.070Z,3.66
2023-04-18T02:59:56.136Z,3.62
2023-04-18T03:02:13.482Z,3.59
2023-04-18T03:04:30.566Z,3.57
2023-04-18T03:06:47.433Z,3.55
2023-04-18T03:09:04.438Z,3.54
2023-04-18T03:11:22.827Z,3.56
2023-04-18T03:13:39.897Z,3.50
2023-04-18T03:15:56.853Z,3.49
2023-04-18T03:18:15.262Z,3.44
2023-04-18T03:20:32.536Z,3.41
2023-04-18T03:22:49.597Z,3.40
2023-04-18T03:25:06.627Z,3.31
2023-04-18T03:27:23.636Z,3.30
2023-04-18T03:29:40.716Z,3.28
2023-04-18T03:31:57.923Z,3.25
2023-04-18T03:34:15.177Z,3.25
2023-04-18T03:36:32.645Z,3.21
2023-04-18T03:38:49.970Z,3.20
2023-04-18T03:41:07.992Z,3.21
2023-04-18T03:43:25.040Z,3.21
2023-04-18T03:45:43.014Z,3.19
2023-04-18T03:48:00.439Z,3.16
2023-04-18T03:50:17.514Z,3.11
2023-04-18T03:52:34.535Z,3.05
2023-04-18T03:54:51.596Z,3.04
2023-04-18T03:57:08.611Z,3.04
2023-04-18T03:59:26.671Z,3.03
2023-04-18T04:01:43.633Z,3.04
2023-04-18T04:04:00.837Z,3.03
2023-04-18T04:06:17.952Z,3.01
2023-04-18T04:08:34.970Z,3.01
2023-04-18T04:10:51.993Z,2.98
2023-04-18T04:13:08.970Z,2.96
2023-04-18T04:15:25.903Z,2.94
2023-04-18T04:17:42.843Z,2.92
2023-04-18T04:19:59.897Z,2.90
2023-04-18T04:22:16.797Z,2.88
2023-04-18T04:24:33.915Z,2.84
2023-04-18T04:26:51.882Z,2.82
2023-04-18T04:29:08.920Z,2.80
2023-04-18T04:31:25.935Z,2.79
2023-04-18T04:33:43.066Z,2.77
2023-04-18T04:36:00.112Z,2.75
2023-04-18T04:38:17.156Z,2.72
2023-04-18T04:40:34.058Z,2.70
2023-04-18T04:42:51.331Z,2.71
2023-04-18T04:45:08.554Z,2.71
2023-04-18T04:47:25.602Z,2.72
2023-04-18T04:49:42.624Z,2.72
2023-04-18T04:52:01.446Z,2.77
2023-04-18T04:54:18.989Z,2.81
2023-04-18T04:56:36.005Z,2.86
2023-04-18T04:58:52.969Z,2.90
2023-04-18T05:01:10.309Z,3.00
2023-04-18T05:03:27.486Z,3.06
2023-04-18T05:05:44.587Z,3.09
2023-04-18T05:08:01.554Z,3.14
2023-04-18T05:10:18.919Z,3.20
2023-04-18T05:12:35.970Z,3.26
2023-04-18T05:14:53.271Z,3.35
2023-04-18T05:17:10.260Z,3.39
2023-04-18T05:19:27.554Z,3.47
2023-04-18T05:21:45.427Z,3.57
2023-04-18T05:24:02.464Z,3.65
2023-04-18T05:26:20.461Z,3.70
2023-04-18T05:28:37.696Z,3.78
2023-04-18T05:30:54.808Z,3.86
2023-04-18T05:33:11.770Z,3.97
2023-04-18T05:35:28.814Z,4.03
2023-04-18T05:37:46.209Z,4.17
2023-04-18T05:40:03.271Z,4.29
2023-04-18T05:42:20.535Z,4.38
2023-04-18T05:44:38.605Z,4.49
2023-04-18T05:46:55.886Z,4.57
2023-04-18T05:49:12.955Z,4.62
2023-04-18T05:51:29.870Z,4.66
2023-04-18T05:53:46.885Z,4.73
2023-04-18T05:56:03.968Z,4.80
2023-04-18T05:58:20.967Z,4.85
2023-04-18T06:00:38.988Z,4.94
2023-04-18T06:02:56.466Z,5.03
2023-04-18T06:05:13.857Z,5.06
2023-04-18T06:07:31.131Z,5.16
2023-04-18T06:09:48.135Z,5.21
2023-04-18T06:12:05.152Z,5.21
2023-04-18T06:14:22.128Z,5.22
2023-04-18T06:16:39.227Z,5.26
2023-04-18T06:18:57.573Z,5.36
2023-04-18T06:21:15.865Z,5.44
2023-04-18T06:23:32.947Z,5.49
2023-04-18T06:25:50.872Z,5.56
2023-04-18T06:28:08.188Z,5.62
2023-04-18T06:30:25.451Z,5.74
2023-04-18T06:32:42.845Z,5.92
2023-04-18T06:34:59.860Z,6.12
2023-04-18T06:37:17.896Z,6.33
2023-04-18T06:39:35.234Z,6.43
2023-04-18T06:41:52.388Z,6.53
2023-04-18T06:44:09.326Z,6.70
2023-04-18T06:46:27.408Z,6.88
2023-04-18T06:48:44.760Z,7.04
2023-04-18T06:51:02.807Z,7.17
2023-04-18T06:53:19.706Z,7.30
2023-04-18T06:55:36.977Z,7.49
2023-04-18T06:57:54.610Z,7.58
2023-04-18T07:00:11.700Z,7.64
2023-04-18T07:02:28.630Z,7.70
2023-04-18T07:04:45.763Z,7.73
2023-04-18T07:07:02.706Z,7.76
2023-04-18T07:09:19.654Z,7.79
2023-04-18T07:11:36.604Z,7.80
2023-04-18T07:13:53.667Z,7.84
2023-04-18T07:16:11.867Z,7.86
2023-04-18T07:18:37.382Z,7.90
2023-04-18T07:20:55.566Z,7.93
2023-04-18T07:23:12.664Z,8.00
2023-04-18T07:25:29.714Z,8.04
2023-04-18T07:27:47.653Z,8.09
2023-04-18T07:30:04.962Z,8.17
2023-04-18T07:32:22.916Z,8.23
2023-04-18T07:34:40.208Z,8.23
2023-04-18T07:36:57.493Z,8.28
2023-04-18T07:39:14.692Z,8.28
2023-04-18T07:41:32.557Z,8.27
2023-04-18T07:43:49.611Z,8.26
2023-04-18T07:46:06.635Z,8.24
2023-04-18T07:48:24.549Z,8.21
2023-04-18T07:50:41.776Z,8.17
2023-04-18T07:52:59.058Z,8.15
2023-04-18T07:55:16.139Z,8.14
2023-04-18T07:57:34.172Z,8.14
2023-04-18T07:59:51.147Z,8.12
2023-04-18T08:02:08.456Z,8.14
2023-04-18T08:04:28.160Z,8.19
2023-04-18T08:06:46.833Z,8.22
2023-04-18T08:09:03.856Z,8.30
2023-04-18T08:11:20.937Z,8.35
2023-04-18T08:13:38.103Z,8.43
2023-04-18T08:15:55.085Z,8.48
2023-04-18T08:18:12.308Z,8.50
2023-04-18T08:20:29.241Z,8.48
2023-04-18T08:23:04.699Z,8.49
2023-04-18T08:25:23.731Z,8.48
2023-04-18T08:27:40.647Z,8.48
2023-04-18T08:29:57.684Z,8.51
2023-04-18T08:32:14.721Z,8.52
2023-04-18T08:34:31.653Z,8.54
2023-04-18T08:36:48.585Z,8.51
2023-04-18T08:39:05.554Z,8.54
2023-04-18T08:41:22.870Z,8.56
2023-04-18T08:43:39.914Z,8.61
2023-04-18T08:45:56.987Z,8.69
2023-04-18T08:48:13.893Z,8.73
2023-04-18T08:50:30.914Z,8.83
2023-04-18T08:52:48.239Z,8.92
2023-04-18T08:55:05.272Z,9.02
2023-04-18T08:57:22.431Z,9.14
2023-04-18T08:59:39.483Z,9.27
2023-04-18T09:01:56.902Z,9.30
2023-04-18T09:04:14.401Z,9.30
2023-04-18T09:06:31.836Z,9.32
2023-04-18T09:08:48.866Z,9.35
2023-04-18T09:11:06.123Z,9.38
2023-04-18T09:13:24.534Z,9.35
2023-04-18T09:15:41.537Z,9.39
2023-04-18T09:17:58.656Z,9.40
2023-04-18T09:20:15.793Z,9.44
2023-04-18T09:22:32.816Z,9.43
2023-04-18T09:24:50.815Z,9.40
2023-04-18T09:27:07.876Z,9.39
2023-04-18T09:29:25.894Z,9.42
2023-04-18T09:31:42.952Z,9.44
2023-04-18T09:34:01.158Z,9.42
2023-04-18T09:36:18.557Z,9.43
2023-04-18T09:38:35.490Z,9.40
2023-04-18T09:40:52.562Z,9.36
2023-04-18T09:43:09.505Z,9.40
2023-04-18T09:45:27.623Z,9.41
2023-04-18T09:47:45.808Z,9.52
2023-04-18T09:50:02.826Z,9.46
2023-04-18T09:52:19.736Z,9.49
2023-04-18T09:54:36.741Z,9.53
2023-04-18T09:56:54.006Z,9.56
2023-04-18T09:59:12.169Z,9.59
2023-04-18T10:01:29.420Z,9.53
2023-04-18T10:03:46.566Z,9.57
2023-04-18T10:06:03.686Z,9.58
2023-04-18T10:08:21.041Z,9.57
2023-04-18T10:10:39.177Z,9.57
2023-04-18T10:12:56.330Z,9.53
2023-04-18T10:15:14.698Z,9.51
2023-04-18T10:17:31.757Z,9.51
2023-04-18T10:19:49.017Z,9.45
2023-04-18T10:22:07.348Z,9.49
2023-04-18T10:24:24.427Z,9.50
2023-04-18T10:26:41.691Z,9.53
2023-04-18T10:28:58.772Z,9.57
2023-04-18T10:31:16.888Z,9.59
2023-04-18T10:33:33.997Z,9.53
2023-04-18T10:35:51.041Z,9.52
2023-04-18T10:38:08.060Z,9.49
2023-04-18T10:40:25.323Z,9.50
2023-04-18T10:42:42.547Z,9.53
2023-04-18T10:44:59.454Z,9.60
2023-04-18T10:47:17.710Z,9.63
2023-04-18T10:49:34.948Z,9.66
2023-04-18T10:51:52.569Z,9.69
2023-04-18T10:54:09.600Z,9.71
2023-04-18T10:56:26.570Z,9.77
2023-04-18T10:58:44.048Z,9.86
2023-04-18T11:01:01.029Z,9.85
2023-04-18T11:03:18.333Z,9.92
2023-04-18T11:05:35.454Z,10.05
2023-04-18T11:07:53.229Z,10.09
2023-04-18T11:10:10.154Z,10.12
2023-04-18T11:12:27.048Z,10.22
2023-04-18T11:14:44.133Z,10.27
2023-04-18T11:17:01.245Z,10.35
2023-04-18T11:19:18.553Z,10.38
2023-04-18T11:21:35.522Z,10.41
2023-04-18T11:23:52.575Z,10.58
2023-04-18T11:26:10.382Z,10.67
2023-04-18T11:28:27.425Z,10.74
2023-04-18T11:30:44.433Z,10.94
2023-04-18T11:33:01.412Z,10.99
2023-04-18T11:35:18.380Z,11.06
2023-04-18T11:37:35.392Z,11.12
2023-04-18T11:39:52.279Z,11.22
2023-04-18T11:42:09.360Z,11.31
2023-04-18T11:44:26.331Z,11.30
2023-04-18T11:46:43.568Z,11.42
2023-04-18T11:49:00.633Z,11.45
2023-04-18T11:51:17.673Z,11.55
2023-04-18T11:53:34.770Z,11.75
2023-04-18T11:55:51.755Z,11.91
2023-04-18T11:58:09.164Z,12.03
2023-04-18T12:00:26.131Z,12.14
2023-04-18T12:02:43.297Z,12.21
2023-04-18T12:05:00.563Z,12.30
2023-04-18T12:07:17.840Z,12.35
2023-04-18T12:09:35.119Z,12.30
2023-04-18T12:11:52.158Z,12.24
2023-04-18T12:14:10.104Z,12.25
2023-04-18T12:16:27.431Z,12.24
2023-04-18T12:18:44.758Z,12.16
2023-04-18T12:21:01.705Z,12.18
2023-04-18T12:23:18.631Z,12.15
2023-04-18T12:25:35.577Z,12.09
2023-04-18T12:27:52.795Z,12.10
2023-04-18T12:30:09.833Z,12.16
2023-04-18T12:32:26.869Z,12.21
2023-04-18T12:34:46.067Z,12.32
2023-04-18T12:37:03.360Z,12.27
2023-04-18T12:39:20.386Z,12.28
2023-04-18T12:41:38.550Z,12.34
2023-04-18T12:43:55.584Z,12.42
2023-04-18T12:46:12.596Z,12.50
2023-04-18T12:48:29.625Z,12.55
2023-04-18T12:50:47.657Z,12.63
2023-04-18T12:53:04.929Z,12.65
2023-04-18T12:55:21.942Z,12.67
2023-04-18T12:57:39.251Z,12.73
2023-04-18T12:59:56.537Z,12.85
2023-04-18T13:02:13.552Z,12.96
2023-04-18T13:04:31.105Z,13.01
2023-04-18T13:06:48.423Z,13.06
2023-04-18T13:09:05.432Z,13.20
2023-04-18T13:11:23.448Z,13.35
2023-04-18T13:13:40.352Z,13.52
2023-04-18T13:15:57.686Z,13.64
2023-04-18T13:18:14.907Z,13.84
2023-04-18T13:20:31.926Z,13.97
2023-04-18T13:22:49.225Z,14.14
2023-04-18T13:25:06.508Z,14.16
2023-04-18T13:27:24.795Z,14.20
2023-04-18T13:29:41.787Z,14.21
2023-04-18T13:31:58.784Z,14.19
2023-04-18T13:34:16.044Z,14.11
2023-04-18T13:36:33.304Z,14.04
2023-04-18T13:38:50.806Z,14.07
2023-04-18T13:41:12.803Z,14.04
2023-04-18T13:43:30.519Z,14.05
2023-04-18T13:45:48.531Z,14.05
2023-04-18T13:48:05.668Z,13.93
2023-04-18T13:50:23.758Z,13.91
2023-04-18T13:52:41.035Z,13.90
2023-04-18T13:54:58.248Z,13.84
2023-04-18T13:57:15.273Z,13.81
2023-04-18T13:59:32.364Z,13.78
2023-04-18T14:01:49.507Z,13.75
2023-04-18T14:04:07.621Z,13.78
2023-04-18T14:06:24.673Z,13.80
2023-04-18T14:08:41.719Z,13.79
2023-04-18T14:10:58.782Z,13.73
2023-04-18T14:13:16.054Z,13.74
2023-04-18T14:15:33.329Z,13.74
2023-04-18T14:17:50.268Z,13.77
2023-04-18T14:20:07.586Z,13.89
2023-04-18T14:22:24.592Z,13.97
2023-04-18T14:24:41.586Z,14.07
2023-04-18T14:26:58.831Z,14.19
2023-04-18T14:29:15.965Z,14.21
2023-04-18T14:31:33.194Z,14.30
2023-04-18T14:33:50.486Z,14.35
2023-04-18T14:36:07.482Z,14.49
2023-04-18T14:38:24.855Z,14.49
2023-04-18T14:40:41.795Z,14.47
2023-04-18T14:42:59.073Z,14.26
2023-04-18T14:45:16.009Z,14.14
2023-04-18T14:47:32.909Z,13.99
2023-04-18T14:49:49.835Z,13.92
2023-04-18T14:52:06.859Z,13.90
2023-04-18T14:54:23.844Z,13.90
2023-04-18T14:56:40.966Z,13.93
2023-04-18T14:58:58.682Z,13.89
2023-04-18T15:01:16.045Z,13.91
2023-04-18T15:03:33.187Z,13.98
2023-04-18T15:05:50.487Z,14.00
2023-04-18T15:08:07.693Z,14.08
2023-04-18T15:10:24.630Z,14.12
2023-04-18T15:12:41.819Z,14.14
2023-04-18T15:14:58.847Z,14.22
2023-04-18T15:17:15.853Z,14.31
2023-04-18T15:19:33.117Z,14.28
2023-04-18T15:21:50.101Z,14.29
2023-04-18T15:24:07.170Z,14.29
2023-04-18T15:26:24.489Z,14.25
2023-04-18T15:28:42.710Z,14.24
2023-04-18T15:30:59.741Z,14.21
2023-04-18T15:33:16.793Z,14.20
2023-04-18T15:35:33.852Z,14.15
2023-04-18T15:37:53.253Z,14.16
2023-04-18T15:40:10.234Z,14.17
2023-04-18T15:42:27.288Z,14.19
2023-04-18T15:44:44.519Z,14.19
2023-04-18T15:47:01.583Z,14.12
2023-04-18T15:49:18.568Z,14.17
2023-04-18T15:51:35.698Z,14.15
2023-04-18T15:53:52.941Z,14.20
2023-04-18T15:56:09.962Z,14.27
2023-04-18T15:58:26.969Z,14.37
2023-04-18T16:00:44.051Z,14.31
2023-04-18T16:03:01.113Z,14.30
2023-04-18T16:05:18.269Z,14.26
2023-04-18T16:07:36.206Z,14.23
2023-04-18T16:09:53.568Z,14.11
2023-04-18T16:12:10.617Z,13.99
2023-04-18T16:14:27.600Z,13.96
2023-04-18T16:16:44.943Z,13.88
2023-04-18T16:19:02.021Z,13.82
2023-04-18T16:21:19.046Z,13.80
2023-04-18T16:23:36.030Z,13.76
2023-04-18T16:25:52.977Z,13.69
2023-04-18T16:28:10.272Z,13.69
2023-04-18T16:30:27.598Z,13.94
2023-04-18T16:32:44.708Z,14.17
2023-04-18T16:35:01.812Z,14.32
2023-04-18T16:37:18.932Z,14.39
2023-04-18T16:39:35.969Z,14.31
2023-04-18T16:41:53.212Z,14.14
2023-04-18T16:44:11.586Z,14.00
2023-04-18T16:46:28.721Z,13.89
2023-04-18T16:48:46.712Z,13.80
2023-04-18T16:51:04.027Z,13.70
2023-04-18T16:53:22.250Z,13.67
2023-04-18T16:55:39.321Z,13.59
2023-04-18T16:57:56.539Z,13.52
2023-04-18T17:00:13.492Z,13.46
2023-04-18T17:02:31.012Z,13.44
2023-04-18T17:04:48.475Z,13.36
2023-04-18T17:07:05.412Z,13.31
2023-04-18T17:09:22.688Z,13.26
2023-04-18T17:11:39.880Z,13.23
2023-04-18T17:13:56.867Z,13.15
2023-04-18T17:16:15.093Z,13.15
2023-04-18T17:18:32.350Z,13.17
2023-04-18T17:20:49.400Z,13.23
2023-04-18T17:23:06.724Z,13.22
2023-04-18T17:25:24.069Z,13.19
2023-04-18T17:27:41.072Z,13.19
2023-04-18T17:29:59.318Z,13.11
2023-04-18T17:32:16.658Z,13.08
2023-04-18T17:34:33.593Z,13.01
2023-04-18T17:36:50.820Z,12.96
2023-04-18T17:39:07.845Z,12.92
2023-04-18T17:41:25.897Z,12.87
2023-04-18T17:43:42.952Z,12.82
2023-04-18T17:46:01.307Z,12.77
2023-04-18T17:48:18.681Z,12.75
2023-04-18T17:50:36.749Z,12.73
2023-04-18T17:52:54.052Z,12.71
2023-04-18T17:55:11.016Z,12.69
2023-04-18T17:57:27.918Z,12.69
2023-04-18T17:59:45.193Z,12.68
2023-04-18T18:02:02.387Z,12.65
2023-04-18T18:04:19.730Z,12.62
2023-04-18T18:06:37.894Z,12.58
2023-04-18T18:08:55.270Z,12.55
2023-04-18T18:11:12.178Z,12.51
2023-04-18T18:13:29.154Z,12.46
2023-04-18T18:15:46.350Z,12.45
2023-04-18T18:18:03.408Z,12.40
2023-04-18T18:20:20.545Z,12.39
2023-04-18T18:22:37.808Z,12.39
2023-04-18T18:24:55.066Z,12.38
2023-04-18T18:27:12.023Z,12.37
2023-04-18T18:29:29.294Z,12.33
2023-04-18T18:31:46.596Z,12.33
2023-04-18T18:34:03.750Z,12.30
2023-04-18T18:36:20.852Z,12.27
2023-04-18T18:38:38.902Z,12.27
2023-04-18T18:40:55.785Z,12.24
2023-04-18T18:43:12.761Z,12.19
2023-04-18T18:45:29.882Z,12.15
2023-04-18T18:47:46.841Z,12.08
2023-04-18T18:50:04.813Z,12.01
2023-04-18T18:52:21.784Z,11.94
2023-04-18T18:54:38.926Z,11.91
2023-04-18T18:56:55.948Z,11.87
2023-04-18T18:59:13.351Z,11.92
2023-04-18T19:01:30.569Z,11.88
2023-04-18T19:03:47.827Z,11.86
2023-04-18T19:06:05.026Z,11.82
2023-04-18T19:08:22.116Z,11.80
2023-04-18T19:10:39.208Z,11.77
2023-04-18T19:12:56.543Z,11.76
2023-04-18T19:15:13.497Z,11.76
2023-04-18T19:17:30.502Z,11.81
2023-04-18T19:19:47.633Z,11.83
2023-04-18T19:22:05.968Z,11.82
2023-04-18T19:24:23.037Z,11.79
2023-04-18T19:26:40.039Z,11.72
2023-04-18T19:28:57.027Z,11.68
2023-04-18T19:31:14.086Z,11.68
2023-04-18T19:33:32.010Z,11.62
2023-04-18T19:35:49.316Z,11.60
2023-04-18T19:38:06.566Z,11.60
2023-04-18T19:40:24.678Z,11.55
2023-04-18T19:42:41.766Z,11.53
2023-04-18T19:44:58.791Z,11.49
2023-04-18T19:47:15.839Z,11.47
2023-04-18T19:49:33.440Z,11.47
2023-04-18T19:51:51.422Z,11.45
2023-04-18T19:54:08.427Z,11.42
2023-04-18T19:56:25.402Z,11.46
2023-04-18T19:58:42.506Z,11.41
2023-04-18T20:00:59.586Z,11.41
2023-04-18T20:03:16.778Z,11.38
2023-04-18T20:05:34.101Z,11.34
2023-04-18T20:07:51.218Z,11.33
2023-04-18T20:10:08.463Z,11.41
2023-04-18T20:12:26.503Z,11.35
2023-04-18T20:14:43.494Z,11.33
2023-04-18T20:17:00.609Z,11.29
2023-04-18T20:19:17.801Z,11.26
2023-04-18T20:21:35.141Z,11.25
2023-04-18T20:23:52.332Z,11.22
2023-04-18T20:26:09.696Z,11.20
2023-04-18T20:28:26.783Z,11.18
2023-04-18T20:30:46.851Z,11.20
2023-04-18T20:33:04.195Z,11.19
2023-04-18T20:35:21.560Z,11.18
2023-04-18T20:37:38.855Z,11.14
2023-04-18T20:39:55.918Z,11.14
2023-04-18T20:42:12.884Z,11.10
2023-04-18T20:44:29.866Z,11.08
2023-04-18T20:46:46.915Z,11.08
2023-04-18T20:49:03.812Z,11.07
2023-04-18T20:51:21.092Z,11.13
2023-04-18T20:53:38.073Z,11.08
2023-04-18T20:55:55.372Z,11.07
2023-04-18T20:58:12.700Z,11.04
2023-04-18T21:00:29.764Z,11.02
2023-04-18T21:02:47.036Z,11.00
2023-04-18T21:05:04.115Z,10.99
2023-04-18T21:07:21.381Z,10.98
2023-04-18T21:09:38.689Z,10.96
2023-04-18T21:11:56.010Z,10.95
2023-04-18T21:14:13.307Z,10.96
2023-04-18T21:16:30.810Z,10.93
2023-04-18T21:18:48.242Z,10.94
2023-04-18T21:21:05.243Z,10.88
2023-04-18T21:23:22.230Z,10.81
2023-04-18T21:25:39.457Z,10.74
2023-04-18T21:27:56.783Z,10.71
2023-04-18T21:30:13.870Z,10.67
2023-04-18T21:32:30.900Z,10.59
2023-04-18T21:34:48.012Z,10.58
2023-04-18T21:37:05.330Z,10.53
2023-04-18T21:39:23.321Z,10.46
2023-04-18T21:41:40.391Z,10.42
2023-04-18T21:43:57.685Z,10.46
2023-04-18T21:46:14.720Z,10.43
2023-04-18T21:48:32.180Z,10.42
2023-04-18T21:50:49.119Z,10.39
2023-04-18T21:53:06.478Z,10.39
2023-04-18T21:55:23.413Z,10.38
2023-04-18T21:57:40.432Z,10.39
2023-04-18T21:59:57.675Z,10.37
2023-04-18T22:02:15.831Z,10.37
2023-04-18T22:04:33.189Z,10.38
2023-04-18T22:06:50.615Z,10.45
2023-04-18T22:09:08.013Z,10.43
2023-04-18T22:11:25.159Z,10.40
2023-04-18T22:13:42.276Z,10.39
2023-04-18T22:16:00.334Z,10.39
2023-04-18T22:18:17.363Z,10.37
2023-04-18T22:20:34.362Z,10.35
2023-04-18T22:22:51.682Z,10.33
2023-04-18T22:25:08.735Z,10.30
2023-04-18T22:27:26.094Z,10.28
2023-04-18T22:29:44.384Z,10.28
2023-04-18T22:32:01.622Z,10.24
2023-04-18T22:34:19.143Z,10.22
2023-04-18T22:36:36.148Z,10.21
2023-04-18T22:38:53.436Z,10.16
2023-04-18T22:41:10.340Z,10.16
2023-04-18T22:43:28.457Z,10.15
2023-04-18T22:45:45.494Z,10.14
2023-04-18T22:48:02.501Z,10.12
2023-04-18T22:50:19.641Z,10.10
2023-04-18T22:52:37.594Z,10.10
2023-04-18T22:54:54.740Z,10.11
2023-04-18T22:57:11.713Z,10.11
2023-04-18T22:59:28.721Z,10.12
2023-04-18T23:01:45.914Z,10.15
2023-04-18T23:04:04.621Z,10.14
2023-04-18T23:06:22.159Z,10.15
2023-04-18T23:08:39.511Z,10.19
2023-04-18T23:10:56.482Z,10.21
2023-04-18T23:13:13.633Z,10.23
2023-04-18T23:15:30.788Z,10.23
2023-04-18T23:17:48.124Z,10.24
2023-04-18T23:20:05.242Z,10.25
2023-04-18T23:22:23.291Z,10.25
2023-04-18T23:24:40.651Z,10.25
2023-04-18T23:26:57.688Z,10.27
2023-04-18T23:29:14.811Z,10.28
2023-04-18T23:31:31.870Z,10.34
2023-04-18T23:33:49.134Z,10.36
2023-04-18T23:36:06.042Z,10.38
2023-04-18T23:38:23.389Z,10.36
2023-04-18T23:40:41.403Z,10.35
2023-04-18T23:42:58.334Z,10.35
2023-04-18T23:45:15.558Z,10.37
2023-04-18T23:47:32.885Z,10.35
2023-04-18T23:49:49.966Z,10.35
2023-04-18T23:52:07.316Z,10.41
2023-04-18T23:54:25.750Z,10.41
2023-04-18T23:56:42.843Z,10.35
2023-04-18T23:58:59.841Z,10.36
